Time;durP1;ratioP1;P1;durP2;ratioP2;P2;SDS_P1;SDS_P2;PMS_P1;PMS_P2;Temp;Humidity;BMP_temperature;BMP_pressure;BME280_temperature;BME280_humidity;BME280_pressure;Samples;Min_cycle;Max_cycle;Signal;HPM_P1;HPM_P2
2022/11/27 00:01:22;;;;;;;;;11.00;8.50;;;;;7.11;80.20;102366.97;5028619;28;10850;-65
2022/11/27 00:03:49;;;;;;;;;10.25;9.00;;;;;7.08;79.70;102356.53;5030710;28;10895;-64
2022/11/27 00:06:18;;;;;;;;;8.00;8.00;;;;;6.99;80.02;102352.81;5030218;28;10829;-64
2022/11/27 00:08:46;;;;;;;;;10.25;9.00;;;;;7.04;80.03;102345.22;5023387;28;11539;-65
2022/11/27 00:11:15;;;;;;;;;9.75;9.00;;;;;7.04;80.02;102355.09;5024156;28;10912;-63
2022/11/27 00:13:42;;;;;;;;;11.50;8.25;;;;;7.04;79.66;102342.56;5027699;28;10806;-64
2022/11/27 00:16:09;;;;;;;;;9.00;8.25;;;;;7.02;80.15;102333.81;5030418;28;11068;-64
2022/11/27 00:18:35;;;;;;;;;8.00;8.00;;;;;6.94;80.14;102331.81;5030479;28;10824;-64
2022/11/27 00:21:09;;;;;;;;;6.00;6.00;;;;;7.03;80.23;102321.28;5027127;28;10866;-64
2022/11/27 00:23:36;;;;;;;;;7.00;7.00;;;;;7.04;79.44;102325.63;5027681;28;10897;-64
2022/11/27 00:26:03;;;;;;;;;6.00;5.00;;;;;7.08;79.55;102337.78;5030043;28;10869;-63
2022/11/27 00:28:30;;;;;;;;;8.75;6.50;;;;;7.04;79.73;102333.69;5028717;28;10759;-64
2022/11/27 00:31:01;;;;;;;;;8.25;8.00;;;;;7.03;79.78;102337.34;5028054;28;10892;-63
2022/11/27 00:33:28;;;;;;;;;7.50;4.00;;;;;7.09;79.63;102334.09;5030386;28;11262;-63
2022/11/27 00:35:54;;;;;;;;;7.00;7.00;;;;;7.08;79.68;102329.75;5029864;28;10843;-63
2022/11/27 00:38:21;;;;;;;;;10.75;8.50;;;;;6.94;79.74;102322.94;5030259;28;10855;-64
2022/11/27 00:40:48;;;;;;;;;8.25;6.00;;;;;6.91;80.01;102326.72;5030025;28;10909;-64
2022/11/27 00:43:14;;;;;;;;;4.50;4.50;;;;;6.96;80.30;102333.50;5030234;28;10838;-64
2022/11/27 00:45:40;;;;;;;;;8.75;7.25;;;;;6.96;79.96;102331.66;5025858;28;10822;-64
2022/11/27 00:48:07;;;;;;;;;5.50;5.50;;;;;7.06;79.73;102331.72;5022071;28;10685;-65
2022/11/27 00:50:33;;;;;;;;;9.75;7.50;;;;;7.10;79.20;102330.47;5029606;28;10825;-64
2022/11/27 00:53:00;;;;;;;;;9.75;8.00;;;;;7.11;78.87;102318.78;5030434;28;10706;-65
2022/11/27 00:55:26;;;;;;;;;8.75;8.75;;;;;7.07;79.46;102312.00;5027921;28;10717;-64
2022/11/27 00:57:52;;;;;;;;;7.50;6.50;;;;;7.11;78.86;102308.91;5030180;28;10952;-64
2022/11/27 01:00:19;;;;;;;;;9.75;6.00;;;;;7.16;79.11;102306.66;5027671;28;10843;-64
2022/11/27 01:02:45;;;;;;;;;5.00;5.00;;;;;7.11;79.04;102303.56;5027433;28;11585;-64
2022/11/27 01:05:12;;;;;;;;;9.25;7.50;;;;;7.10;79.31;102295.66;5029366;28;10783;-63
2022/11/27 01:07:38;;;;;;;;;6.00;6.00;;;;;7.09;79.13;102288.59;5029951;28;11168;-64
2022/11/27 01:10:06;;;;;;;;;12.75;11.00;;;;;7.05;78.95;102281.81;5029770;28;10909;-66
2022/11/27 01:12:32;;;;;;;;;8.25;8.00;;;;;7.00;79.77;102284.06;5029257;28;10800;-65
2022/11/27 01:14:58;;;;;;;;;5.00;5.00;;;;;7.06;78.46;102272.81;5025079;28;10956;-61
2022/11/27 01:17:25;;;;;;;;;7.50;5.50;;;;;7.07;79.37;102275.34;5027216;28;10756;-64
2022/11/27 01:19:51;;;;;;;;;10.50;9.00;;;;;7.03;79.02;102279.28;5029405;28;10858;-62
2022/11/27 01:22:18;;;;;;;;;7.50;5.00;;;;;7.10;79.31;102282.28;5029926;28;10774;-64
2022/11/27 01:24:45;;;;;;;;;8.50;7.75;;;;;7.00;79.42;102282.22;5026905;28;11560;-64
2022/11/27 01:27:11;;;;;;;;;9.00;8.50;;;;;7.08;79.63;102277.03;5028695;28;10840;-64
2022/11/27 01:29:37;;;;;;;;;9.25;7.00;;;;;7.18;78.62;102279.75;5028906;28;10750;-64
2022/11/27 01:32:04;;;;;;;;;4.75;4.75;;;;;7.12;79.10;102273.09;5029318;28;10828;-64
2022/11/27 01:34:30;;;;;;;;;5.75;5.75;;;;;7.12;78.51;102264.22;5030403;28;10765;-64
2022/11/27 01:36:57;;;;;;;;;4.00;4.00;;;;;7.05;79.55;102252.34;5033277;28;10737;-64
2022/11/27 01:39:23;;;;;;;;;6.75;6.75;;;;;6.91;78.96;102251.75;5033144;28;10765;-63
2022/11/27 01:41:50;;;;;;;;;6.00;5.25;;;;;6.92;79.36;102245.41;5032579;28;10757;-65
2022/11/27 01:44:22;;;;;;;;;5.25;5.25;;;;;6.89;78.97;102247.56;5029455;28;10675;-65
2022/11/27 01:46:50;;;;;;;;;4.75;4.50;;;;;6.98;79.05;102240.53;5030794;28;10726;-65
2022/11/27 01:49:37;;;;;;;;;6.25;6.00;;;;;7.00;79.35;102241.22;5032269;28;10603;-63
2022/11/27 01:52:12;;;;;;;;;7.50;6.00;;;;;7.04;78.24;102227.41;5023754;28;10838;-61
2022/11/27 01:54:47;;;;;;;;;5.75;5.00;;;;;7.06;78.85;102238.84;5032771;28;11766;-64
2022/11/27 01:57:18;;;;;;;;;8.50;5.50;;;;;7.09;78.08;102241.28;5027116;28;10750;-63
2022/11/27 01:59:46;;;;;;;;;5.00;4.00;;;;;7.02;78.27;102237.44;5033149;28;10736;-64
2022/11/27 02:02:13;;;;;;;;;5.25;5.25;;;;;6.99;78.46;102228.81;5033045;28;10695;-64
2022/11/27 02:04:39;;;;;;;;;4.00;4.00;;;;;7.05;78.51;102226.47;5032640;28;10620;-63
2022/11/27 02:07:06;;;;;;;;;9.00;7.00;;;;;7.09;78.27;102222.53;5031397;28;10532;-63
2022/11/27 02:09:33;;;;;;;;;6.00;5.00;;;;;7.03;77.86;102208.84;5028570;28;10691;-61
2022/11/27 02:12:15;;;;;;;;;6.50;4.75;;;;;6.99;78.13;102202.06;5031473;28;10933;-62
2022/11/27 02:14:53;;;;;;;;;4.00;3.50;;;;;7.06;77.97;102200.53;5031970;28;11309;-63
2022/11/27 02:17:34;;;;;;;;;4.50;4.50;;;;;6.98;77.88;102211.09;5032951;28;10657;-64
2022/11/27 02:20:18;;;;;;;;;3.25;3.00;;;;;7.04;78.14;102199.81;5032047;28;10618;-62
2022/11/27 02:23:18;;;;;;;;;5.50;2.25;;;;;7.02;77.66;102202.63;5029445;28;10674;-65
2022/11/27 02:26:02;;;;;;;;;4.50;4.50;;;;;6.95;78.00;102214.88;5026070;28;10599;-64
2022/11/27 02:28:53;;;;;;;;;8.00;4.00;;;;;7.00;77.25;102215.28;5032852;28;10659;-63
2022/11/27 02:31:28;;;;;;;;;2.75;2.75;;;;;6.98;77.63;102216.44;5032452;28;10745;-64
2022/11/27 02:34:02;;;;;;;;;5.00;4.25;;;;;6.94;77.14;102213.19;5032767;28;10622;-61
2022/11/27 02:36:32;;;;;;;;;9.00;6.75;;;;;6.96;77.47;102213.03;5031729;28;11455;-63
2022/11/27 02:39:06;;;;;;;;;7.75;6.25;;;;;6.91;77.35;102219.63;5028420;28;10655;-65
2022/11/27 02:41:41;;;;;;;;;3.50;3.50;;;;;6.92;77.80;102217.81;5029855;28;10618;-62
2022/11/27 02:44:09;;;;;;;;;7.00;4.50;;;;;6.94;77.28;102214.03;5011977;28;11233;-64
2022/11/27 02:46:37;;;;;;;;;6.00;4.75;;;;;6.93;77.60;102212.34;5031451;28;10765;-63
2022/11/27 02:49:10;;;;;;;;;5.75;5.00;;;;;6.99;77.34;102208.25;5029416;28;10747;-64
2022/11/27 02:51:45;;;;;;;;;4.25;4.25;;;;;7.03;77.50;102200.78;5030280;28;10670;-63
2022/11/27 02:54:17;;;;;;;;;5.50;5.00;;;;;6.99;76.95;102207.41;5022623;28;10622;-64
2022/11/27 02:56:47;;;;;;;;;5.25;5.25;;;;;6.90;77.38;102198.38;5028336;28;10785;-64
2022/11/27 02:59:17;;;;;;;;;4.00;3.50;;;;;6.98;77.03;102203.06;5030840;28;10623;-64
2022/11/27 03:01:52;;;;;;;;;5.50;5.00;;;;;6.90;77.26;102193.88;5030344;28;10664;-64
2022/11/27 03:04:25;;;;;;;;;3.00;3.00;;;;;6.91;77.55;102195.56;5027681;28;10559;-65
2022/11/27 03:06:55;;;;;;;;;6.25;4.25;;;;;6.86;76.98;102194.28;5037468;23;10554;31
2022/11/27 03:09:34;;;;;;;;;4.00;4.00;;;;;6.91;77.07;102192.88;5008792;28;10615;-65
2022/11/27 03:12:03;;;;;;;;;4.50;2.50;;;;;6.99;77.00;102186.00;5014379;28;10654;-65
2022/11/27 03:14:30;;;;;;;;;3.50;3.50;;;;;6.98;76.51;102190.50;5029308;28;10681;-65
2022/11/27 03:17:15;;;;;;;;;7.50;5.00;;;;;6.98;76.13;102182.47;5010596;28;10722;-65
2022/11/27 03:19:50;;;;;;;;;5.50;4.25;;;;;7.03;76.90;102185.56;5011372;28;10710;-64
2022/11/27 03:22:18;;;;;;;;;4.50;2.50;;;;;7.06;75.70;102179.13;5009894;28;10718;-63
2022/11/27 03:24:45;;;;;;;;;6.00;5.50;;;;;6.90;76.57;102172.44;5007072;28;10761;-63
2022/11/27 03:27:14;;;;;;;;;4.50;4.00;;;;;6.81;76.79;102151.03;5009079;28;10738;-63
2022/11/27 03:29:46;;;;;;;;;4.25;4.25;;;;;6.83;76.89;102168.63;5010934;28;10625;-64
2022/11/27 03:32:13;;;;;;;;;6.00;4.00;;;;;6.86;76.68;102168.34;5011099;28;10600;-64
2022/11/27 03:34:40;;;;;;;;;5.00;5.00;;;;;6.84;76.65;102172.13;5010772;28;10707;-65
2022/11/27 03:37:07;;;;;;;;;4.00;4.00;;;;;6.76;76.59;102180.84;5009981;28;10907;-64
2022/11/27 03:39:34;;;;;;;;;2.00;2.00;;;;;6.84;76.70;102169.47;5011486;28;10706;-64
2022/11/27 03:42:16;;;;;;;;;7.50;5.75;;;;;6.84;76.85;102172.97;5008911;28;10712;-62
2022/11/27 03:45:01;;;;;;;;;4.00;4.00;;;;;6.87;76.77;102163.84;5010842;28;10796;-63
2022/11/27 03:47:39;;;;;;;;;6.75;2.25;;;;;6.96;76.87;102157.66;5020418;28;10602;-64
2022/11/27 03:50:12;;;;;;;;;3.00;2.50;;;;;6.93;76.15;102148.09;5009494;28;10644;-65
2022/11/27 03:52:50;;;;;;;;;2.00;2.00;;;;;6.93;76.14;102145.41;5007234;28;10767;-65
2022/11/27 03:55:35;;;;;;;;;4.75;3.50;;;;;6.88;76.06;102152.16;5015536;28;10665;-65
2022/11/27 03:58:13;;;;;;;;;4.00;4.00;;;;;6.88;76.26;102149.47;5013895;28;10740;-64
2022/11/27 04:00:43;;;;;;;;;4.75;3.75;;;;;6.91;76.02;102162.59;5009934;28;10796;-64
2022/11/27 04:03:11;;;;;;;;;5.25;5.25;;;;;6.93;75.91;102161.47;4991240;28;10625;-65
2022/11/27 04:05:38;;;;;;;;;6.00;5.25;;;;;6.97;76.06;102154.03;5001576;28;10669;-64
2022/11/27 04:08:05;;;;;;;;;5.00;4.00;;;;;6.89;76.15;102156.53;5009804;28;11356;-65
2022/11/27 04:10:31;;;;;;;;;3.50;2.50;;;;;6.92;76.33;102149.06;5010679;28;10520;-66
2022/11/27 04:12:57;;;;;;;;;2.00;2.00;;;;;6.81;76.29;102157.22;5011740;28;10588;-65
2022/11/27 04:15:24;;;;;;;;;3.75;3.75;;;;;6.90;76.10;102161.75;5009499;28;10672;-65
2022/11/27 04:17:50;;;;;;;;;6.00;3.50;;;;;6.98;75.97;102155.69;5010456;28;10598;-65
2022/11/27 04:20:17;;;;;;;;;8.25;2.00;;;;;6.84;75.80;102142.69;5010245;28;10616;-65
2022/11/27 04:22:43;;;;;;;;;5.50;4.75;;;;;6.83;75.65;102146.38;5007097;28;10588;-65
2022/11/27 04:25:10;;;;;;;;;3.00;2.50;;;;;6.90;75.89;102143.00;5000985;28;10743;-66
2022/11/27 04:27:36;;;;;;;;;4.50;4.50;;;;;6.98;75.62;102144.16;5009171;28;10707;-65
2022/11/27 04:30:03;;;;;;;;;5.50;3.00;;;;;6.89;75.32;102135.97;5011677;28;10768;-66
2022/11/27 04:32:30;;;;;;;;;5.75;5.00;;;;;6.89;75.99;102135.97;5006306;28;10747;-64
2022/11/27 04:34:56;;;;;;;;;3.00;3.00;;;;;6.98;75.68;102128.09;5009962;28;10961;-64
2022/11/27 04:37:22;;;;;;;;;5.00;1.75;;;;;6.91;75.32;102131.31;5010218;28;10647;-65
2022/11/27 04:39:49;;;;;;;;;4.25;4.00;;;;;6.96;75.38;102127.38;5009955;28;10545;-65
2022/11/27 04:42:15;;;;;;;;;6.75;4.00;;;;;6.93;75.61;102121.31;5009511;28;10704;-65
2022/11/27 04:44:42;;;;;;;;;3.00;3.00;;;;;6.84;75.25;102123.97;5007992;28;10762;-66
2022/11/27 04:47:08;;;;;;;;;6.50;4.25;;;;;6.82;75.98;102126.78;5006029;28;10679;-66
2022/11/27 04:49:35;;;;;;;;;4.75;3.25;;;;;6.83;75.22;102123.13;5009598;28;10682;-64
2022/11/27 04:52:01;;;;;;;;;7.00;2.50;;;;;6.87;75.45;102121.03;5010123;28;10655;-66
2022/11/27 04:54:27;;;;;;;;;4.00;3.50;;;;;6.79;75.66;102112.84;5008402;28;10674;-66
2022/11/27 04:56:54;;;;;;;;;1.75;1.75;;;;;6.80;75.34;102110.00;5007882;28;11312;-66
2022/11/27 04:59:21;;;;;;;;;3.75;3.75;;;;;6.92;74.81;102106.22;5009819;28;11510;-65
2022/11/27 05:01:47;;;;;;;;;2.50;2.50;;;;;6.94;75.30;102098.06;5006579;28;10690;-66
2022/11/27 05:04:14;;;;;;;;;5.75;4.50;;;;;6.85;75.62;102102.44;5008385;28;10712;-66
2022/11/27 05:06:40;;;;;;;;;4.25;3.75;;;;;6.75;75.13;102104.25;5009782;28;10615;-65
2022/11/27 05:09:07;;;;;;;;;5.00;4.00;;;;;6.76;75.96;102110.44;5013747;28;10609;-66
2022/11/27 05:11:33;;;;;;;;;3.50;3.50;;;;;6.80;75.74;102112.69;5013020;28;10524;-66
2022/11/27 05:14:19;;;;;;;;;3.50;2.00;;;;;6.81;75.23;102103.69;5013751;28;10692;-63
2022/11/27 05:16:49;;;;;;;;;4.50;2.00;;;;;6.76;75.28;102110.44;5013007;28;10613;-66
2022/11/27 05:19:17;;;;;;;;;5.00;5.00;;;;;6.76;75.64;102110.44;5013561;28;10390;-65
2022/11/27 05:21:45;;;;;;;;;4.00;4.00;;;;;6.68;76.22;102112.00;5013566;28;10668;-65
2022/11/27 05:24:12;;;;;;;;;2.00;2.00;;;;;6.70;76.35;102111.84;5010155;28;10494;-65
2022/11/27 05:26:39;;;;;;;;;5.50;4.50;;;;;6.77;76.98;102096.94;5011298;28;10465;-65
2022/11/27 05:29:07;;;;;;;;;3.50;3.50;;;;;6.86;76.23;102096.09;5013723;28;10623;-66
2022/11/27 05:31:33;;;;;;;;;4.25;3.50;;;;;6.92;77.12;102086.66;5011973;28;10617;-66
2022/11/27 05:34:00;;;;;;;;;11.00;5.00;;;;;6.82;77.38;102083.97;5025359;28;10623;-65
2022/11/27 05:36:28;;;;;;;;;2.50;2.50;;;;;6.73;76.86;102086.66;4997700;28;10647;-65
2022/11/27 05:38:54;;;;;;;;;2.00;2.00;;;;;6.75;77.77;102079.31;5000621;28;10884;-64
2022/11/27 05:41:22;;;;;;;;;4.50;3.00;;;;;6.68;77.35;102085.22;5013200;28;10863;-65
2022/11/27 05:43:48;;;;;;;;;5.75;5.75;;;;;6.78;77.87;102081.72;5013147;28;10691;-65
2022/11/27 05:46:18;;;;;;;;;5.25;4.00;;;;;6.69;77.72;102084.25;5008071;28;10616;-67
2022/11/27 05:48:44;;;;;;;;;4.00;4.00;;;;;6.62;78.42;102066.19;5014151;28;11542;-64
2022/11/27 05:51:11;;;;;;;;;4.00;4.00;;;;;6.60;78.78;102070.81;5013352;28;10812;-65
2022/11/27 05:53:38;;;;;;;;;4.75;4.75;;;;;6.64;78.30;102069.56;5013215;28;10596;-65
2022/11/27 05:56:15;;;;;;;;;3.50;1.00;;;;;6.72;78.20;102052.81;5012796;28;10747;-65
2022/11/27 05:58:44;;;;;;;;;4.00;4.00;;;;;6.56;79.06;102058.72;5011379;28;10774;-65
2022/11/27 06:01:12;;;;;;;;;5.25;3.50;;;;;6.60;78.70;102057.44;5010345;28;10746;-65
2022/11/27 06:03:38;;;;;;;;;2.75;2.75;;;;;6.55;79.01;102049.00;5012918;28;10759;-65
2022/11/27 06:06:07;;;;;;;;;4.00;4.00;;;;;6.59;79.53;102056.59;5015629;28;10888;-64
2022/11/27 06:08:35;;;;;;;;;5.25;4.50;;;;;6.61;79.30;102053.81;5011919;28;10815;-66
2022/11/27 06:11:11;;;;;;;;;5.00;5.00;;;;;6.56;78.93;102059.59;5012759;28;10815;-66
2022/11/27 06:13:37;;;;;;;;;5.50;5.00;;;;;6.56;79.70;102056.03;5004938;28;10772;-66
2022/11/27 06:16:09;;;;;;;;;4.00;4.00;;;;;6.44;79.84;102061.53;5012112;28;10979;-66
2022/11/27 06:18:36;;;;;;;;;5.25;4.00;;;;;6.43;80.04;102067.00;5011891;28;10662;-65
2022/11/27 06:21:07;;;;;;;;;2.00;2.00;;;;;6.47;79.96;102055.03;5010806;28;10701;-66
2022/11/27 06:23:34;;;;;;;;;4.75;4.50;;;;;6.49;79.54;102049.56;5012573;28;10810;-65
2022/11/27 06:26:22;;;;;;;;;2.00;2.00;;;;;6.57;80.21;102047.88;5011653;28;11648;-66
2022/11/27 06:28:49;;;;;;;;;6.25;3.50;;;;;6.46;80.32;102055.19;5012125;28;10733;-66
2022/11/27 06:31:19;;;;;;;;;4.25;4.25;;;;;6.40;80.42;102040.50;5010434;28;11477;-66
2022/11/27 06:33:47;;;;;;;;;4.75;4.00;;;;;6.44;80.22;102031.22;5014001;28;10810;-65
2022/11/27 06:36:14;;;;;;;;;5.00;4.75;;;;;6.44;80.23;102032.09;5010175;28;10756;-65
2022/11/27 06:38:41;;;;;;;;;6.75;4.25;;;;;6.38;80.72;102032.66;5011471;28;10748;-66
2022/11/27 06:41:11;;;;;;;;;5.50;4.00;;;;;6.48;80.95;102021.09;5011236;28;10764;-66
2022/11/27 06:43:38;;;;;;;;;1.75;1.50;;;;;6.55;80.68;102014.22;5014517;28;11626;-66
2022/11/27 06:46:06;;;;;;;;;3.50;3.50;;;;;6.54;80.30;102018.72;5010811;28;10692;-65
2022/11/27 06:48:33;;;;;;;;;4.25;4.25;;;;;6.55;80.22;102019.56;5009998;28;10692;-65
2022/11/27 06:51:01;;;;;;;;;4.00;2.00;;;;;6.55;80.78;102020.41;5011997;28;10739;-65
2022/11/27 06:53:29;;;;;;;;;4.50;3.00;;;;;6.58;80.61;102003.25;5008452;28;11656;-66
2022/11/27 06:55:56;;;;;;;;;4.00;3.00;;;;;6.59;80.44;102004.94;5009876;28;10738;-65
2022/11/27 06:58:23;;;;;;;;;4.00;3.50;;;;;6.49;80.57;102009.44;5016651;28;10796;-65
2022/11/27 07:01:01;;;;;;;;;4.00;2.50;;;;;6.51;80.83;102007.47;5010622;28;10749;-64
2022/11/27 07:03:28;;;;;;;;;2.50;2.00;;;;;6.53;80.84;102005.50;5010969;28;10764;-64
2022/11/27 07:05:54;;;;;;;;;3.50;3.50;;;;;6.50;80.55;102009.28;5011324;28;10958;-65
2022/11/27 07:08:21;;;;;;;;;5.00;4.00;;;;;6.48;80.99;101994.34;5011613;28;10789;-65
2022/11/27 07:10:48;;;;;;;;;2.00;2.00;;;;;6.56;81.12;102003.41;5011638;28;10929;-64
2022/11/27 07:13:14;;;;;;;;;6.50;5.00;;;;;6.50;80.83;102000.44;5010720;28;11504;-65
2022/11/27 07:15:41;;;;;;;;;4.00;4.00;;;;;6.49;81.30;101986.22;5001826;28;10760;-66
2022/11/27 07:18:07;;;;;;;;;5.00;3.00;;;;;6.42;81.28;101977.88;5011518;28;10896;-64
2022/11/27 07:20:34;;;;;;;;;3.25;2.75;;;;;6.44;81.43;101978.63;5009438;28;10842;-65
2022/11/27 07:23:00;;;;;;;;;1.75;1.25;;;;;6.43;81.09;101982.25;5010982;28;10762;-65
2022/11/27 07:25:27;;;;;;;;;4.25;2.00;;;;;6.50;82.16;101971.00;5010657;28;10730;-65
2022/11/27 07:27:54;;;;;;;;;2.00;2.00;;;;;6.53;81.38;101960.03;5005856;28;10765;-65
2022/11/27 07:30:20;;;;;;;;;3.50;1.50;;;;;6.62;81.63;101954.69;5011317;28;10722;-66
2022/11/27 07:32:47;;;;;;;;;7.50;3.00;;;;;6.55;81.13;101955.38;5010782;28;10655;-65
2022/11/27 07:35:13;;;;;;;;;5.75;2.00;;;;;6.61;80.73;101969.03;5010193;28;10668;-64
2022/11/27 07:37:40;;;;;;;;;1.00;1.00;;;;;6.55;81.46;101976.78;5010417;28;10720;-65
2022/11/27 07:40:06;;;;;;;;;4.00;3.00;;;;;6.52;80.99;101974.38;5001283;28;10763;-64
2022/11/27 07:42:33;;;;;;;;;4.00;4.00;;;;;6.52;81.14;101972.53;5009698;28;11557;-65
2022/11/27 07:45:06;;;;;;;;;6.00;3.50;;;;;6.49;80.90;101969.31;5008078;28;10816;-65
2022/11/27 07:47:32;;;;;;;;;1.25;0.75;;;;;6.51;81.69;101968.19;5006117;28;10798;-65
2022/11/27 07:49:59;;;;;;;;;5.00;5.00;;;;;6.56;81.78;101963.28;5010348;28;10762;-65
2022/11/27 07:52:26;;;;;;;;;3.00;1.75;;;;;6.63;81.29;101961.72;5010607;28;10892;-64
2022/11/27 07:54:52;;;;;;;;;4.25;2.00;;;;;6.66;81.07;101965.94;5008883;28;11481;-67
2022/11/27 07:57:19;;;;;;;;;3.00;1.75;;;;;6.64;80.96;101959.88;5010606;28;10679;-65
2022/11/27 07:59:45;;;;;;;;;2.00;1.00;;;;;6.52;81.50;101956.50;5009319;28;10874;-65
2022/11/27 08:02:13;;;;;;;;;2.00;2.00;;;;;6.49;81.48;101946.09;5009388;28;10903;-65
2022/11/27 08:04:40;;;;;;;;;5.25;4.00;;;;;6.37;81.62;101942.72;5009157;28;10876;-65
2022/11/27 08:07:07;;;;;;;;;1.00;1.00;;;;;6.47;81.61;101944.53;4993311;28;11443;-65
2022/11/27 08:09:33;;;;;;;;;2.00;2.00;;;;;6.44;81.65;101941.16;5003034;28;10815;-64
2022/11/27 08:12:00;;;;;;;;;1.75;1.50;;;;;6.53;81.06;101944.00;5007419;28;10838;-65
2022/11/27 08:14:26;;;;;;;;;5.75;3.50;;;;;6.46;81.34;101949.03;5008626;28;10621;-64
2022/11/27 08:16:53;;;;;;;;;4.25;3.50;;;;;6.51;81.46;101941.44;5010221;28;10743;-65
2022/11/27 08:19:19;;;;;;;;;2.00;2.00;;;;;6.65;80.67;101942.84;5008593;28;10695;-64
2022/11/27 08:21:46;;;;;;;;;4.00;4.00;;;;;6.72;80.32;101943.13;5009405;28;10759;-65
2022/11/27 08:24:12;;;;;;;;;4.25;1.25;;;;;6.77;80.76;101944.41;5010785;28;10891;-65
2022/11/27 08:26:39;;;;;;;;;9.75;4.00;;;;;6.64;80.47;101942.00;5009288;28;10895;-65
2022/11/27 08:29:05;;;;;;;;;6.00;2.00;;;;;6.57;80.32;101940.88;5010125;28;10683;-65
2022/11/27 08:31:32;;;;;;;;;2.00;2.00;;;;;6.64;80.33;101946.50;5009955;28;10744;-66
2022/11/27 08:33:59;;;;;;;;;2.50;2.50;;;;;6.67;80.65;101938.19;5007771;28;10816;-65
2022/11/27 08:36:25;;;;;;;;;4.00;1.00;;;;;6.71;80.34;101952.13;5008324;28;10762;-66
2022/11/27 08:38:52;;;;;;;;;4.00;4.00;;;;;6.63;80.31;101951.00;5009798;28;10631;-64
2022/11/27 08:41:19;;;;;;;;;4.75;3.50;;;;;6.66;80.94;101948.06;5017966;28;11400;-63
2022/11/27 08:43:46;;;;;;;;;4.00;4.00;;;;;6.59;80.33;101932.69;5007844;28;10956;-64
2022/11/27 08:46:12;;;;;;;;;4.00;4.00;;;;;6.69;80.92;101946.94;5009297;28;10664;-64
2022/11/27 08:48:40;;;;;;;;;5.25;4.25;;;;;6.74;79.80;101944.66;5007598;28;10798;-65
2022/11/27 08:51:09;;;;;;;;;4.00;4.00;;;;;6.70;79.95;101945.94;5009674;28;10700;-65
2022/11/27 08:53:36;;;;;;;;;2.50;2.50;;;;;6.69;80.15;101949.63;5010350;28;11579;-65
2022/11/27 08:56:14;;;;;;;;;4.25;4.25;;;;;6.66;80.62;101953.41;5009589;28;10732;-65
2022/11/27 08:58:42;;;;;;;;;2.00;2.00;;;;;6.76;80.74;101952.53;5009595;28;10722;-65
2022/11/27 09:01:11;;;;;;;;;4.75;4.00;;;;;6.78;80.71;101948.75;5007428;28;10586;-64
2022/11/27 09:03:37;;;;;;;;;1.75;1.75;;;;;6.85;80.41;101951.72;5009589;28;10759;-65
2022/11/27 09:06:09;;;;;;;;;4.00;2.00;;;;;6.81;80.14;101942.28;5008962;28;10595;-64
2022/11/27 09:08:40;;;;;;;;;4.25;4.25;;;;;6.82;80.59;101946.63;5008827;28;10716;-59
2022/11/27 09:11:08;;;;;;;;;4.50;4.00;;;;;6.86;81.10;101940.84;5007878;28;10771;-61
2022/11/27 09:13:35;;;;;;;;;4.50;2.00;;;;;6.83;80.96;101933.09;5009392;28;10939;-60
2022/11/27 09:16:08;;;;;;;;;2.00;2.00;;;;;6.78;80.80;101934.53;5008926;28;10753;-60
2022/11/27 09:18:34;;;;;;;;;3.75;3.50;;;;;6.73;81.69;101929.63;5007554;28;10531;-64
2022/11/27 09:21:06;;;;;;;;;4.75;4.00;;;;;6.76;81.75;101928.47;5005111;28;10676;-59
2022/11/27 09:23:33;;;;;;;;;7.50;4.25;;;;;6.78;81.99;101934.53;5010474;28;10788;-64
2022/11/27 09:26:01;;;;;;;;;5.00;2.00;;;;;6.73;82.03;101928.78;5008799;28;10704;-60
2022/11/27 09:28:28;;;;;;;;;9.25;6.50;;;;;6.74;82.97;101928.63;5008723;28;10740;-61
2022/11/27 09:30:59;;;;;;;;;4.00;4.00;;;;;6.80;82.56;101914.66;5008288;28;11924;-62
2022/11/27 09:33:28;;;;;;;;;8.50;5.50;;;;;6.78;82.22;101918.47;5011960;28;10755;-62
2022/11/27 09:35:54;;;;;;;;;4.25;4.25;;;;;6.64;83.03;101915.25;5008451;28;10830;-62
2022/11/27 09:38:22;;;;;;;;;4.75;4.75;;;;;6.68;82.61;101916.66;5008852;28;10686;-63
2022/11/27 09:40:51;;;;;;;;;6.00;1.50;;;;;6.72;82.98;101909.16;5009301;28;10814;-62
2022/11/27 09:43:27;;;;;;;;;4.00;3.00;;;;;6.75;82.71;101906.22;5007427;28;10673;-63
2022/11/27 09:46:02;;;;;;;;;4.50;4.00;;;;;6.78;82.93;101902.41;5009306;28;10787;-62
2022/11/27 09:48:41;;;;;;;;;3.50;3.50;;;;;6.67;82.67;101898.91;5009161;28;10671;-61
2022/11/27 09:51:23;;;;;;;;;8.75;7.50;;;;;6.77;82.30;101898.06;5008702;28;10667;-63
2022/11/27 09:54:03;;;;;;;;;5.00;4.50;;;;;6.76;82.96;101891.00;5006529;28;10795;-64
2022/11/27 09:56:34;;;;;;;;;10.00;5.00;;;;;6.77;82.66;101896.22;5013150;28;10722;-64
2022/11/27 09:59:02;;;;;;;;;7.00;7.00;;;;;6.67;83.16;101892.72;5013097;28;11504;-63
2022/11/27 10:01:31;;;;;;;;;5.50;5.50;;;;;6.75;83.21;101883.97;5013176;28;10770;-61
2022/11/27 10:04:13;;;;;;;;;9.50;7.00;;;;;6.77;82.78;101893.56;5010289;28;10892;-64
2022/11/27 10:07:04;;;;;;;;;7.00;5.50;;;;;6.71;83.45;101896.78;5013614;28;10888;-64
2022/11/27 10:09:52;;;;;;;;;4.75;4.75;;;;;6.70;83.28;101887.06;5007248;28;10844;-63
2022/11/27 10:12:38;;;;;;;;;11.00;9.25;;;;;6.74;83.43;101879.63;5005939;28;10912;-65
2022/11/27 10:15:29;;;;;;;;;5.00;4.25;;;;;6.72;83.17;101887.75;5010860;28;10733;-62
2022/11/27 10:18:13;;;;;;;;;7.00;6.25;;;;;6.66;83.80;101881.16;5010344;28;10893;-66
2022/11/27 10:20:47;;;;;;;;;5.00;4.00;;;;;6.64;84.00;101883.16;5011260;28;10883;-64
2022/11/27 10:23:29;;;;;;;;;10.50;8.00;;;;;6.62;83.29;101878.91;5007471;28;10854;-63
2022/11/27 10:26:02;;;;;;;;;8.75;6.50;;;;;6.60;84.00;101870.19;5010861;28;10997;-62
2022/11/27 10:28:34;;;;;;;;;7.50;7.00;;;;;6.63;83.56;101865.38;5012096;28;10834;-63
2022/11/27 10:31:12;;;;;;;;;8.00;8.00;;;;;6.68;84.15;101868.50;5012122;28;10829;-62
2022/11/27 10:33:51;;;;;;;;;8.25;7.50;;;;;6.65;84.30;101860.75;5012415;28;11599;-63
2022/11/27 10:36:28;;;;;;;;;8.25;5.00;;;;;6.69;84.19;101864.84;5026089;28;10746;-64
2022/11/27 10:38:58;;;;;;;;;6.50;6.50;;;;;6.75;83.89;101863.41;5020276;28;10983;-63
2022/11/27 10:41:44;;;;;;;;;5.00;4.75;;;;;6.73;84.12;101852.00;5011816;28;10858;-64
2022/11/27 10:44:41;;;;;;;;;9.00;5.75;;;;;6.77;84.09;101856.09;5011404;28;10739;-64
2022/11/27 10:47:12;;;;;;;;;12.00;5.00;;;;;6.80;83.31;101847.75;4989595;28;10916;-63
2022/11/27 10:49:40;;;;;;;;;4.25;4.25;;;;;6.84;84.05;101851.81;4994477;28;11140;-63
2022/11/27 10:52:18;;;;;;;;;6.00;6.00;;;;;6.87;83.61;101851.53;5012131;28;10706;-64
2022/11/27 10:54:51;;;;;;;;;7.25;6.00;;;;;6.71;83.95;101843.28;5011602;28;10619;-63
2022/11/27 10:57:28;;;;;;;;;7.00;6.00;;;;;6.64;84.40;101844.81;5011756;28;10685;-63
2022/11/27 11:00:13;;;;;;;;;11.75;9.50;;;;;6.65;84.42;101841.19;5017886;28;10815;-63
2022/11/27 11:02:40;;;;;;;;;4.25;4.25;;;;;6.74;84.42;101832.28;5010324;28;11688;-63
2022/11/27 11:05:17;;;;;;;;;8.00;7.75;;;;;6.75;83.96;101825.94;5019063;28;10770;-64
2022/11/27 11:08:19;;;;;;;;;9.00;8.75;;;;;6.75;84.58;101825.94;5009891;28;10902;-62
2022/11/27 11:10:53;;;;;;;;;6.50;5.00;;;;;6.76;84.38;101822.25;5022108;28;10943;-64
2022/11/27 11:13:22;;;;;;;;;5.00;4.50;;;;;6.83;84.80;101814.50;5009548;28;10747;-63
2022/11/27 11:15:50;;;;;;;;;11.00;8.25;;;;;6.84;84.59;101819.69;5008541;28;10740;-64
2022/11/27 11:18:20;;;;;;;;;6.25;5.75;;;;;6.85;84.60;101802.69;5010910;28;10895;-63
2022/11/27 11:20:50;;;;;;;;;6.00;5.25;;;;;6.96;84.77;101798.13;5010088;28;10657;-63
2022/11/27 11:23:24;;;;;;;;;5.50;5.00;;;;;6.89;84.56;101789.84;5009553;28;10768;-65
2022/11/27 11:25:54;;;;;;;;;10.00;9.50;;;;;6.82;84.82;101788.75;5010003;28;11457;-64
2022/11/27 11:28:22;;;;;;;;;4.75;4.75;;;;;6.80;84.95;101780.00;5011056;28;10864;-63
2022/11/27 11:31:06;;;;;;;;;5.00;4.00;;;;;6.91;84.65;101769.13;5010832;28;10865;-63
2022/11/27 11:33:46;;;;;;;;;8.00;7.00;;;;;7.01;85.13;101777.97;5007511;28;10770;-64
2022/11/27 11:36:13;;;;;;;;;7.50;4.75;;;;;7.07;84.71;101773.84;5012953;28;10617;-63
2022/11/27 11:38:45;;;;;;;;;4.00;4.00;;;;;7.08;84.55;101778.19;5010126;28;10627;-61
2022/11/27 11:41:12;;;;;;;;;8.25;7.00;;;;;7.05;85.10;101778.50;5004210;28;11602;-63
2022/11/27 11:43:39;;;;;;;;;6.50;4.25;;;;;7.14;84.96;101769.59;5009701;28;10649;-59
2022/11/27 11:46:18;;;;;;;;;6.00;5.75;;;;;7.22;83.89;101769.69;5010114;28;10690;-59
2022/11/27 11:49:07;;;;;;;;;8.75;7.50;;;;;7.08;84.18;101768.31;5005683;28;10879;-61